ΕΜΥ, Εθνική Μετεωρολογική Υπηρεσία - Δελτία Καιρού, Προγνώσεις

ΑΕΡΟΝΑΥΤΙΛΙΑ

GREEK AIRPORTS CODES

LGEL 300950Z 35006KT 9999 FEW018 BKN025 18/11 Q1012 RMK SCT070 SCT180=

EUROPEAN AIRPORTS CODES

LFPO 301000Z 22003KT 190V270 9999 BKN011 02/M00 Q1028 NOSIG=